createdAt,value
2019-02-02T00:02:03.736Z,20.53
2019-02-02T00:04:40.974Z,18.63
2019-02-02T00:07:12.288Z,23.20
2019-02-02T00:09:54.785Z,22.27
2019-02-02T00:12:29.198Z,20.77
2019-02-02T00:15:05.194Z,20.80
2019-02-02T00:17:42.945Z,26.63
2019-02-02T00:20:23.147Z,25.13
2019-02-02T00:23:03.343Z,22.93
2019-02-02T00:25:35.495Z,25.30
2019-02-02T00:28:10.947Z,25.47
2019-02-02T00:30:43.096Z,23.30
2019-02-02T00:33:24.734Z,21.90
2019-02-02T00:36:07.832Z,22.20
2019-02-02T00:38:41.682Z,22.33
2019-02-02T00:41:14.170Z,24.37
2019-02-02T00:43:50.468Z,22.40
2019-02-02T00:46:30.236Z,20.37
2019-02-02T00:49:23.899Z,19.13
2019-02-02T00:52:03.484Z,18.03
2019-02-02T00:54:41.435Z,19.23
2019-02-02T00:57:16.390Z,17.90
2019-02-02T00:59:48.656Z,15.67
2019-02-02T01:02:22.605Z,15.30
2019-02-02T01:04:56.252Z,15.33
2019-02-02T01:07:28.443Z,19.37
2019-02-02T01:10:06.382Z,19.37
2019-02-02T01:12:38.563Z,18.47
2019-02-02T01:15:11.887Z,18.37
2019-02-02T01:17:56.527Z,17.27
2019-02-02T01:20:40.066Z,16.10
2019-02-02T01:23:15.968Z,16.70
2019-02-02T01:25:50.063Z,16.43
2019-02-02T01:28:22.443Z,18.70
2019-02-02T01:30:54.761Z,18.00
2019-02-02T01:33:30.418Z,20.93
2019-02-02T01:36:05.145Z,18.17
2019-02-02T01:38:37.325Z,16.33
2019-02-02T01:41:14.783Z,17.47
2019-02-02T01:43:48.171Z,17.93
2019-02-02T01:46:23.090Z,18.23
2019-02-02T01:49:03.644Z,19.13
2019-02-02T01:51:41.688Z,19.23
2019-02-02T01:54:20.291Z,17.73
2019-02-02T01:56:52.487Z,21.47
2019-02-02T01:59:26.289Z,22.40
2019-02-02T02:02:01.726Z,20.43
2019-02-02T02:04:33.649Z,17.80
2019-02-02T02:07:08.759Z,17.47
2019-02-02T02:09:45.513Z,17.77
2019-02-02T02:12:20.508Z,23.83
2019-02-02T02:14:57.848Z,27.27
2019-02-02T02:17:29.887Z,18.90
2019-02-02T02:20:04.992Z,18.43
2019-02-02T02:22:41.045Z,16.87
2019-02-02T02:25:16.671Z,17.40
2019-02-02T02:27:54.383Z,17.23
2019-02-02T02:30:31.084Z,17.53
2019-02-02T02:33:07.493Z,17.90
2019-02-02T02:35:40.699Z,16.57
2019-02-02T02:38:14.816Z,18.57
2019-02-02T02:40:48.077Z,20.23
2019-02-02T02:43:24.784Z,19.03
2019-02-02T02:46:06.174Z,18.57
2019-02-02T02:48:38.452Z,22.33
2019-02-02T02:51:13.685Z,23.03
2019-02-02T02:53:47.278Z,21.20
2019-02-02T02:56:21.738Z,22.23
2019-02-02T02:58:53.837Z,19.80
2019-02-02T03:01:28.783Z,20.30
2019-02-02T03:04:02.169Z,18.77
2019-02-02T03:06:37.430Z,19.50
2019-02-02T03:09:18.189Z,20.40
2019-02-02T03:11:58.808Z,19.67
2019-02-02T03:14:32.064Z,18.53
2019-02-02T03:17:06.973Z,19.20
2019-02-02T03:19:42.200Z,19.50
2019-02-02T03:22:17.156Z,19.90
2019-02-02T03:24:53.042Z,18.30
2019-02-02T03:27:35.035Z,18.83
2019-02-02T03:30:09.688Z,18.37
2019-02-02T03:32:41.760Z,17.80
2019-02-02T03:35:17.078Z,21.30
2019-02-02T03:37:54.644Z,21.43
2019-02-02T03:40:26.809Z,21.50
2019-02-02T03:43:00.102Z,20.17
2019-02-02T03:45:40.699Z,19.60
2019-02-02T03:48:13.428Z,21.93
2019-02-02T03:50:48.717Z,21.80
2019-02-02T03:53:25.000Z,19.80
2019-02-02T03:55:57.401Z,20.23
2019-02-02T03:58:41.391Z,22.83
2019-02-02T04:01:17.260Z,22.47
2019-02-02T04:03:52.381Z,25.60
2019-02-02T04:06:32.171Z,25.73
2019-02-02T04:09:14.378Z,25.33
2019-02-02T04:11:53.158Z,22.87
2019-02-02T04:14:34.537Z,24.80
2019-02-02T04:17:07.729Z,25.33
2019-02-02T04:19:43.215Z,26.00
2019-02-02T04:22:18.792Z,22.40
2019-02-02T04:24:52.905Z,20.53
2019-02-02T04:27:40.850Z,20.20
2019-02-02T04:30:27.460Z,21.43
2019-02-02T04:32:57.364Z,20.57
2019-02-02T04:35:32.549Z,22.03
2019-02-02T04:38:11.078Z,22.20
2019-02-02T04:40:48.703Z,21.17
2019-02-02T04:43:29.238Z,25.47
2019-02-02T04:46:03.459Z,21.20
2019-02-02T04:48:42.979Z,21.90
2019-02-02T04:51:20.039Z,21.50
2019-02-02T04:53:58.042Z,21.87
2019-02-02T04:56:42.805Z,23.07
2019-02-02T04:59:29.032Z,18.17
2019-02-02T05:02:01.759Z,18.90
2019-02-02T05:04:35.707Z,16.80
2019-02-02T05:07:12.181Z,16.93
2019-02-02T05:09:46.650Z,17.73
2019-02-02T05:12:31.882Z,17.53
2019-02-02T05:27:34.128Z,31.03
2019-02-02T05:30:11.908Z,24.27
2019-02-02T05:32:44.776Z,24.17
2019-02-02T05:35:22.139Z,22.30
2019-02-02T05:38:01.381Z,25.70
2019-02-02T05:40:36.966Z,21.57
2019-02-02T05:43:11.281Z,24.87
2019-02-02T05:45:52.912Z,25.97
2019-02-02T05:48:30.030Z,28.90
2019-02-02T05:51:08.004Z,37.47
2019-02-02T05:53:42.733Z,38.00
2019-02-02T05:56:19.544Z,32.70
2019-02-02T05:58:57.879Z,30.57
2019-02-02T06:01:36.904Z,28.30
2019-02-02T06:04:17.270Z,31.60
2019-02-02T06:06:50.358Z,38.67
2019-02-02T06:09:27.589Z,45.40
2019-02-02T06:12:03.082Z,32.40
2019-02-02T06:14:36.135Z,30.03
2019-02-02T06:17:17.812Z,33.67
2019-02-02T06:20:02.448Z,47.57
2019-02-02T06:22:36.495Z,48.00
2019-02-02T06:25:14.479Z,39.73
2019-02-02T06:27:48.842Z,49.60
2019-02-02T06:30:22.249Z,46.13
2019-02-02T06:33:02.258Z,72.60
2019-02-02T06:35:37.147Z,42.03
2019-02-02T06:38:15.636Z,46.17
2019-02-02T06:40:48.471Z,66.00
2019-02-02T06:43:22.593Z,48.37
2019-02-02T06:46:02.165Z,77.60
2019-02-02T06:48:33.558Z,54.53
2019-02-02T06:51:10.807Z,55.03
2019-02-02T06:53:52.868Z,44.73
2019-02-02T06:56:22.715Z,50.53
2019-02-02T06:59:00.913Z,52.27
2019-02-02T07:01:35.503Z,44.97
2019-02-02T07:04:16.440Z,42.23
2019-02-02T07:06:56.754Z,34.00
2019-02-02T07:09:35.463Z,34.87
2019-02-02T07:12:08.508Z,39.07
2019-02-02T07:14:48.042Z,34.33
2019-02-02T07:17:30.346Z,38.80
2019-02-02T07:20:05.529Z,25.10
2019-02-02T07:22:55.717Z,21.57
2019-02-02T07:25:30.004Z,24.13
2019-02-02T07:28:23.448Z,25.27
2019-02-02T07:31:02.204Z,24.27
2019-02-02T07:33:36.049Z,24.30
2019-02-02T07:36:10.374Z,21.83
2019-02-02T07:38:44.277Z,21.57
2019-02-02T07:41:18.997Z,21.53
2019-02-02T07:43:52.800Z,23.50
2019-02-02T07:46:25.735Z,27.67
2019-02-02T07:49:01.439Z,25.50
2019-02-02T07:51:34.403Z,23.73
2019-02-02T07:54:13.679Z,21.33
2019-02-02T07:56:54.713Z,27.97
2019-02-02T07:59:29.723Z,28.10
2019-02-02T08:02:06.186Z,30.50
2019-02-02T08:04:42.045Z,31.00
2019-02-02T08:07:19.841Z,34.67
2019-02-02T08:09:59.099Z,36.97
2019-02-02T08:12:33.105Z,36.50
2019-02-02T08:15:12.394Z,43.67
2019-02-02T08:17:46.905Z,36.53
2019-02-02T08:20:23.156Z,33.90
2019-02-02T08:22:58.894Z,49.83
2019-02-02T08:25:35.974Z,33.10
2019-02-02T08:28:11.143Z,37.00
2019-02-02T08:30:52.033Z,37.93
2019-02-02T08:33:22.603Z,37.30
2019-02-02T08:36:04.010Z,19.67
2019-02-02T08:38:38.527Z,24.30
2019-02-02T08:41:20.256Z,27.60
2019-02-02T08:43:57.100Z,64.10
2019-02-02T08:46:33.721Z,28.20
2019-02-02T08:49:09.259Z,26.90
2019-02-02T08:51:56.741Z,33.17
2019-02-02T08:54:30.744Z,24.47
2019-02-02T08:57:03.904Z,27.10
2019-02-02T08:59:37.953Z,24.70
2019-02-02T09:02:11.953Z,25.77
2019-02-02T09:04:58.130Z,24.40
2019-02-02T09:07:38.318Z,25.13
2019-02-02T09:10:23.591Z,26.07
2019-02-02T09:12:59.539Z,24.87
2019-02-02T09:15:33.687Z,24.17
2019-02-02T09:18:07.975Z,22.70
2019-02-02T09:20:45.008Z,20.33
2019-02-02T09:23:22.181Z,21.03
2019-02-02T09:25:55.267Z,20.63
2019-02-02T09:28:28.250Z,22.23
2019-02-02T09:31:02.640Z,18.97
2019-02-02T09:33:39.769Z,20.13
2019-02-02T09:36:23.380Z,23.40
2019-02-02T09:38:51.777Z,19.80
2019-02-02T09:41:33.047Z,20.03
2019-02-02T09:44:07.850Z,21.47
2019-02-02T09:46:40.775Z,23.07
2019-02-02T09:49:15.295Z,24.30
2019-02-02T09:51:52.618Z,25.50
2019-02-02T09:54:27.136Z,22.47
2019-02-02T09:57:00.355Z,20.43
2019-02-02T09:59:36.727Z,20.23
2019-02-02T10:02:13.806Z,18.10
2019-02-02T10:04:46.183Z,15.63
2019-02-02T10:07:22.841Z,13.87
2019-02-02T10:09:57.158Z,16.93
2019-02-02T10:12:31.606Z,15.80
2019-02-02T10:15:07.078Z,16.10
2019-02-02T10:17:45.135Z,17.93
2019-02-02T10:20:26.998Z,16.43
2019-02-02T10:23:02.587Z,16.40
2019-02-02T10:25:38.140Z,15.97
2019-02-02T10:28:14.306Z,20.10
2019-02-02T10:30:56.221Z,15.03
2019-02-02T10:33:31.653Z,16.70
2019-02-02T10:36:08.283Z,14.17
2019-02-02T10:38:49.565Z,16.00
2019-02-02T10:41:25.683Z,16.33
2019-02-02T10:43:59.903Z,18.10
2019-02-02T10:46:33.570Z,18.07
2019-02-02T10:49:09.663Z,16.67
2019-02-02T10:51:43.695Z,17.97
2019-02-02T10:54:22.794Z,17.83
2019-02-02T10:57:00.178Z,16.53
2019-02-02T10:59:40.065Z,18.07
2019-02-02T11:02:18.039Z,16.47
2019-02-02T11:04:55.089Z,16.23
2019-02-02T11:07:31.604Z,14.73
2019-02-02T11:10:05.412Z,14.40
2019-02-02T11:12:42.990Z,14.37
2019-02-02T11:15:28.227Z,14.83
2019-02-02T11:18:02.835Z,14.63
2019-02-02T11:20:40.715Z,17.30
2019-02-02T11:23:14.220Z,5.63
2019-02-02T11:25:49.284Z,3.97
2019-02-02T11:28:27.774Z,2.20
2019-02-02T11:31:00.964Z,2.60
2019-02-02T11:33:34.205Z,2.47
2019-02-02T11:36:27.436Z,2.20
2019-02-02T11:39:13.785Z,2.60
2019-02-02T11:41:56.739Z,2.43
2019-02-02T11:44:48.823Z,2.10
2019-02-02T11:47:28.240Z,2.67
2019-02-02T11:50:15.398Z,4.40
2019-02-02T11:52:57.094Z,3.13
2019-02-02T11:55:40.729Z,2.23
2019-02-02T11:58:22.402Z,2.07
2019-02-02T12:01:05.601Z,2.50
2019-02-02T12:03:47.173Z,2.37
2019-02-02T12:06:40.486Z,2.07
2019-02-02T12:09:27.126Z,2.03
2019-02-02T12:12:18.871Z,2.30
2019-02-02T12:15:22.013Z,2.30
2019-02-02T12:18:08.241Z,2.50
2019-02-02T12:20:58.580Z,1.97
2019-02-02T12:23:51.563Z,1.93
2019-02-02T12:26:32.675Z,2.33
2019-02-02T12:29:12.904Z,2.20
2019-02-02T12:31:54.172Z,2.37
2019-02-02T12:34:42.229Z,4.00
2019-02-02T12:37:33.266Z,2.20
2019-02-02T12:40:10.683Z,3.50
2019-02-02T12:43:03.985Z,3.90
2019-02-02T12:46:13.170Z,4.97
2019-02-02T12:48:49.689Z,6.10
2019-02-02T12:51:31.764Z,5.87
2019-02-02T12:57:09.439Z,10.47
2019-02-02T12:59:54.737Z,10.87
2019-02-02T13:02:46.466Z,10.47
2019-02-02T13:05:28.554Z,9.47
2019-02-02T13:08:17.595Z,9.93
2019-02-02T13:11:00.355Z,11.43
2019-02-02T13:13:59.675Z,10.27
2019-02-02T13:16:43.600Z,10.67
2019-02-02T13:19:26.496Z,11.20
2019-02-02T13:22:34.489Z,10.40
2019-02-02T13:25:17.162Z,11.70
2019-02-02T13:28:08.981Z,8.00
2019-02-02T13:30:47.032Z,5.63
2019-02-02T13:33:29.245Z,9.57
2019-02-02T13:36:10.345Z,11.83
2019-02-02T13:38:44.101Z,14.53
2019-02-02T13:41:31.602Z,13.50
2019-02-02T13:44:20.188Z,9.13
2019-02-02T13:47:29.006Z,9.63
2019-02-02T13:50:09.381Z,10.10
2019-02-02T13:52:49.967Z,14.43
2019-02-02T13:55:50.246Z,10.67
2019-02-02T13:58:35.842Z,8.70
2019-02-02T14:01:18.681Z,7.63
2019-02-02T14:04:02.141Z,9.83
2019-02-02T14:06:44.059Z,10.10
2019-02-02T14:09:25.877Z,7.93
2019-02-02T14:12:09.383Z,9.77
2019-02-02T14:14:53.190Z,8.80
2019-02-02T14:17:48.907Z,6.77
2019-02-02T14:20:24.797Z,16.07
2019-02-02T14:23:02.987Z,10.50
2019-02-02T14:25:46.469Z,7.13
2019-02-02T14:28:28.613Z,8.77
2019-02-02T14:31:01.156Z,9.70
2019-02-02T14:33:44.924Z,10.30
2019-02-02T14:36:30.651Z,7.97
2019-02-02T14:39:11.696Z,12.70
2019-02-02T14:41:57.771Z,12.27
2019-02-02T14:44:39.571Z,10.80
2019-02-02T14:47:24.982Z,15.10
2019-02-02T14:50:06.414Z,12.13
2019-02-02T14:52:56.944Z,8.73
2019-02-02T14:55:35.875Z,7.87
2019-02-02T14:58:15.015Z,11.63
2019-02-02T15:01:02.255Z,18.20
2019-02-02T15:04:01.726Z,12.90
2019-02-02T15:06:52.270Z,9.80
2019-02-02T15:12:26.895Z,11.60
2019-02-02T15:15:00.052Z,9.60
2019-02-02T15:17:33.520Z,9.70
2019-02-02T15:20:14.706Z,11.63
2019-02-02T15:22:49.327Z,11.03
2019-02-02T15:25:25.256Z,12.23
2019-02-02T15:27:58.628Z,10.50
2019-02-02T15:30:34.221Z,17.87
2019-02-02T15:33:14.387Z,13.03
2019-02-02T15:35:48.772Z,14.23
2019-02-02T15:38:31.645Z,13.73
2019-02-02T15:41:05.042Z,13.87
2019-02-02T15:43:41.336Z,22.33
2019-02-02T15:46:14.780Z,24.67
2019-02-02T15:48:50.942Z,37.37
2019-02-02T15:51:24.446Z,26.40
2019-02-02T15:53:59.298Z,15.30
2019-02-02T15:56:35.898Z,27.73
2019-02-02T15:59:09.803Z,32.40
2019-02-02T16:01:48.370Z,28.57
2019-02-02T16:04:23.519Z,24.87
2019-02-02T16:06:58.324Z,24.70
2019-02-02T16:09:42.082Z,18.13
2019-02-02T16:12:18.994Z,48.43
2019-02-02T16:14:56.634Z,36.03
2019-02-02T16:17:33.224Z,26.53
2019-02-02T16:20:07.653Z,42.50
2019-02-02T16:22:43.502Z,30.60
2019-02-02T16:25:18.321Z,26.37
2019-02-02T16:27:52.271Z,40.97
2019-02-02T16:30:30.691Z,61.87
2019-02-02T16:33:04.327Z,48.60
2019-02-02T16:35:37.901Z,34.83
2019-02-02T16:38:14.210Z,23.60
2019-02-02T16:40:48.536Z,35.03
2019-02-02T16:43:22.046Z,44.93
2019-02-02T16:45:55.507Z,38.97
2019-02-02T16:48:30.353Z,29.33
2019-02-02T16:51:04.260Z,27.03
2019-02-02T16:53:48.516Z,44.33
2019-02-02T16:56:22.723Z,34.50
2019-02-02T16:58:56.883Z,27.77
2019-02-02T17:01:30.941Z,25.03
2019-02-02T17:04:15.109Z,26.77
2019-02-02T17:06:42.406Z,20.37
2019-02-02T17:09:15.960Z,17.93
2019-02-02T17:11:49.548Z,31.07
2019-02-02T17:14:23.373Z,28.33
2019-02-02T17:16:56.732Z,32.63
2019-02-02T17:19:31.345Z,63.27
2019-02-02T17:22:05.307Z,51.17
2019-02-02T17:24:42.008Z,48.33
2019-02-02T17:27:15.828Z,42.00
2019-02-02T17:29:49.503Z,67.73
2019-02-02T17:32:22.983Z,41.73
2019-02-02T17:34:56.551Z,37.67
2019-02-02T17:37:30.937Z,39.70
2019-02-02T17:40:04.070Z,39.30
2019-02-02T17:42:38.153Z,36.07
2019-02-02T17:45:14.523Z,34.93
2019-02-02T17:47:48.491Z,38.60
2019-02-02T17:50:24.156Z,49.90
2019-02-02T17:52:57.515Z,36.97
2019-02-02T17:55:31.361Z,34.07
2019-02-02T17:58:04.252Z,31.27
2019-02-02T18:01:02.616Z,31.90
2019-02-02T18:03:36.422Z,25.83
2019-02-02T18:06:09.932Z,39.77
2019-02-02T18:08:43.561Z,38.13
2019-02-02T18:11:17.122Z,42.60
2019-02-02T18:13:50.535Z,43.17
2019-02-02T18:16:23.944Z,34.07
2019-02-02T18:18:57.661Z,30.53
2019-02-02T18:21:33.752Z,31.83
2019-02-02T18:24:07.204Z,37.77
2019-02-02T18:26:41.076Z,43.47
2019-02-02T18:29:14.555Z,38.47
2019-02-02T18:31:48.017Z,33.50
2019-02-02T18:34:21.329Z,28.43
2019-02-02T18:36:55.418Z,31.10
2019-02-02T18:39:29.145Z,32.53
2019-02-02T18:42:03.680Z,30.73
2019-02-02T18:44:36.822Z,28.90
2019-02-02T18:47:10.444Z,30.37
2019-02-02T18:49:44.140Z,24.27
2019-02-02T18:52:17.703Z,34.73
2019-02-02T18:54:51.292Z,19.77
2019-02-02T18:57:30.343Z,24.03
2019-02-02T19:00:06.096Z,18.47
2019-02-02T19:02:39.662Z,22.57
2019-02-02T19:05:13.289Z,22.77
2019-02-02T19:07:47.119Z,22.00
2019-02-02T19:10:26.128Z,15.33
2019-02-02T19:13:00.030Z,17.70
2019-02-02T19:15:34.337Z,31.60
2019-02-02T19:18:09.025Z,27.37
2019-02-02T19:20:43.364Z,23.33
2019-02-02T19:23:24.712Z,22.87
2019-02-02T19:25:52.533Z,22.10
2019-02-02T19:28:32.226Z,31.23
2019-02-02T19:31:04.778Z,19.80
2019-02-02T19:33:38.879Z,26.47
2019-02-02T19:36:12.743Z,33.23
2019-02-02T19:38:47.249Z,33.83
2019-02-02T19:41:24.559Z,33.77
2019-02-02T19:43:58.048Z,18.43
2019-02-02T19:46:32.130Z,23.40
2019-02-02T19:49:05.502Z,18.07
2019-02-02T19:51:39.530Z,50.77
2019-02-02T19:54:13.048Z,34.77
2019-02-02T19:56:46.497Z,27.97
2019-02-02T19:59:19.958Z,40.50
2019-02-02T20:01:53.562Z,24.60
2019-02-02T20:04:29.107Z,20.30
2019-02-02T20:07:05.858Z,27.10
2019-02-02T20:09:41.480Z,33.67
2019-02-02T20:12:15.561Z,31.00
2019-02-02T20:14:49.197Z,29.43
2019-02-02T20:17:22.629Z,27.53
2019-02-02T20:19:56.458Z,31.47
2019-02-02T20:22:29.872Z,32.17
2019-02-02T20:25:03.260Z,67.37
2019-02-02T20:27:36.426Z,34.50
2019-02-02T20:30:12.554Z,23.50
2019-02-02T20:32:46.778Z,39.47
2019-02-02T20:35:19.567Z,46.77
2019-02-02T20:37:52.721Z,20.53
2019-02-02T20:40:26.893Z,15.00
2019-02-02T20:43:00.319Z,16.43
2019-02-02T20:45:35.803Z,15.10
2019-02-02T20:48:09.307Z,20.97
2019-02-02T20:50:42.078Z,19.40
2019-02-02T20:53:15.078Z,21.00
2019-02-02T20:55:49.026Z,23.33
2019-02-02T20:58:22.993Z,23.27
2019-02-02T21:00:56.062Z,43.10
2019-02-02T21:03:29.214Z,18.97
2019-02-02T21:06:03.119Z,15.53
2019-02-02T21:08:36.442Z,19.67
2019-02-02T21:11:09.785Z,19.03
2019-02-02T21:13:43.234Z,16.20
2019-02-02T21:16:19.554Z,23.00
2019-02-02T21:18:52.532Z,18.17
2019-02-02T21:21:26.137Z,21.13
2019-02-02T21:24:00.013Z,20.47
2019-02-02T21:26:34.345Z,17.17
2019-02-02T21:29:08.095Z,17.03
2019-02-02T21:31:41.670Z,16.23
2019-02-02T21:34:15.321Z,19.13
2019-02-02T21:36:48.920Z,16.93
2019-02-02T21:39:22.203Z,21.50
2019-02-02T21:41:55.813Z,18.17
2019-02-02T21:44:29.440Z,16.13
2019-02-02T21:47:04.051Z,28.07
2019-02-02T21:49:38.173Z,18.80
2019-02-02T21:52:11.870Z,16.20
2019-02-02T21:54:46.219Z,24.20
2019-02-02T21:57:19.724Z,17.60
2019-02-02T21:59:53.627Z,26.57
2019-02-02T22:02:27.338Z,23.53
2019-02-02T22:05:01.389Z,18.63
2019-02-02T22:07:34.624Z,19.30
2019-02-02T22:10:09.649Z,21.37
2019-02-02T22:12:42.739Z,23.20
2019-02-02T22:15:20.258Z,20.60
2019-02-02T22:17:53.375Z,18.53
2019-02-02T22:20:26.527Z,17.13
2019-02-02T22:22:59.691Z,17.83
2019-02-02T22:25:33.864Z,21.53
2019-02-02T22:28:08.412Z,21.37
2019-02-02T22:30:41.450Z,18.57
2019-02-02T22:33:14.533Z,18.90
2019-02-02T22:35:47.641Z,19.13
2019-02-02T22:38:20.726Z,19.80
2019-02-02T22:40:53.492Z,19.17
2019-02-02T22:43:26.563Z,17.97
2019-02-02T22:46:00.473Z,21.80
2019-02-02T22:48:33.481Z,39.60
2019-02-02T22:51:06.458Z,20.07
2019-02-02T22:53:39.477Z,20.47
2019-02-02T22:56:13.315Z,27.27
2019-02-02T22:58:48.056Z,28.37
2019-02-02T23:01:51.363Z,33.17
2019-02-02T23:05:37.876Z,28.53
2019-02-02T23:08:55.148Z,24.57
2019-02-02T23:11:56.976Z,20.90
2019-02-02T23:15:06.560Z,17.40
2019-02-02T23:17:39.512Z,22.87
2019-02-02T23:20:12.663Z,20.47
2019-02-02T23:22:45.899Z,16.40
2019-02-02T23:25:18.898Z,18.40
2019-02-02T23:27:51.802Z,18.77
2019-02-02T23:30:24.937Z,16.70
2019-02-02T23:32:57.900Z,22.33
2019-02-02T23:35:30.702Z,18.40
2019-02-02T23:38:04.038Z,19.63
2019-02-02T23:40:37.737Z,17.43
2019-02-02T23:43:11.182Z,14.90
2019-02-02T23:45:44.073Z,13.47
2019-02-02T23:48:16.976Z,21.87
2019-02-02T23:50:50.437Z,23.00
2019-02-02T23:53:23.280Z,22.37
2019-02-02T23:55:55.983Z,21.37
2019-02-02T23:58:30.462Z,26.50
